sensor_id;sensor_type;location;lat;lon;timestamp;temperature;humidity
44182;DHT22;30436;48.888;9.202;2023-05-07T00:00:37;19.10;88.90
44182;DHT22;30436;48.888;9.202;2023-05-07T00:05:46;19.10;87.10
44182;DHT22;30436;48.888;9.202;2023-05-07T00:08:12;19.10;88.60
44182;DHT22;30436;48.888;9.202;2023-05-07T00:13:21;19.10;88.70
44182;DHT22;30436;48.888;9.202;2023-05-07T00:15:47;19.00;88.40
44182;DHT22;30436;48.888;9.202;2023-05-07T00:18:12;19.00;89.00
44182;DHT22;30436;48.888;9.202;2023-05-07T00:20:38;19.00;88.00
44182;DHT22;30436;48.888;9.202;2023-05-07T00:23:03;19.10;88.70
44182;DHT22;30436;48.888;9.202;2023-05-07T00:25:29;19.00;88.40
44182;DHT22;30436;48.888;9.202;2023-05-07T00:27:55;19.10;88.30
44182;DHT22;30436;48.888;9.202;2023-05-07T00:30:20;19.10;90.50
44182;DHT22;30436;48.888;9.202;2023-05-07T00:32:46;19.00;88.60
44182;DHT22;30436;48.888;9.202;2023-05-07T00:35:14;19.00;89.70
44182;DHT22;30436;48.888;9.202;2023-05-07T00:37:39;19.00;90.50
44182;DHT22;30436;48.888;9.202;2023-05-07T00:40:06;18.90;89.60
44182;DHT22;30436;48.888;9.202;2023-05-07T00:48:04;18.80;89.80
44182;DHT22;30436;48.888;9.202;2023-05-07T00:50:30;18.90;90.30
44182;DHT22;30436;48.888;9.202;2023-05-07T00:52:56;18.80;90.40
44182;DHT22;30436;48.888;9.202;2023-05-07T00:55:23;18.70;90.90
44182;DHT22;30436;48.888;9.202;2023-05-07T01:00:45;18.80;90.10
44182;DHT22;30436;48.888;9.202;2023-05-07T01:03:11;18.70;90.10
44182;DHT22;30436;48.888;9.202;2023-05-07T01:05:37;18.50;90.20
44182;DHT22;30436;48.888;9.202;2023-05-07T01:08:05;18.50;90.60
44182;DHT22;30436;48.888;9.202;2023-05-07T01:10:31;18.40;91.50
44182;DHT22;30436;48.888;9.202;2023-05-07T01:12:58;18.50;90.40
44182;DHT22;30436;48.888;9.202;2023-05-07T01:15:24;18.50;90.40
44182;DHT22;30436;48.888;9.202;2023-05-07T01:17:50;18.50;90.50
44182;DHT22;30436;48.888;9.202;2023-05-07T01:20:29;18.50;91.60
44182;DHT22;30436;48.888;9.202;2023-05-07T01:22:57;18.50;90.80
44182;DHT22;30436;48.888;9.202;2023-05-07T01:25:23;18.50;90.70
44182;DHT22;30436;48.888;9.202;2023-05-07T01:27:55;18.40;91.00
44182;DHT22;30436;48.888;9.202;2023-05-07T01:30:25;18.40;91.30
44182;DHT22;30436;48.888;9.202;2023-05-07T01:33:04;18.40;91.20
44182;DHT22;30436;48.888;9.202;2023-05-07T01:35:42;18.30;91.00
44182;DHT22;30436;48.888;9.202;2023-05-07T01:38:10;18.30;91.10
44182;DHT22;30436;48.888;9.202;2023-05-07T01:40:37;18.20;91.00
44182;DHT22;30436;48.888;9.202;2023-05-07T01:43:03;18.20;90.90
44182;DHT22;30436;48.888;9.202;2023-05-07T01:45:32;18.20;90.90
44182;DHT22;30436;48.888;9.202;2023-05-07T01:47:59;18.20;90.70
44182;DHT22;30436;48.888;9.202;2023-05-07T01:50:25;18.20;91.00
44182;DHT22;30436;48.888;9.202;2023-05-07T01:52:52;18.20;92.80
44182;DHT22;30436;48.888;9.202;2023-05-07T01:55:17;18.30;91.10
44182;DHT22;30436;48.888;9.202;2023-05-07T01:57:43;18.30;90.90
44182;DHT22;30436;48.888;9.202;2023-05-07T02:02:32;18.30;91.00
44182;DHT22;30436;48.888;9.202;2023-05-07T02:04:58;18.30;91.10
44182;DHT22;30436;48.888;9.202;2023-05-07T02:07:24;18.30;91.30
44182;DHT22;30436;48.888;9.202;2023-05-07T02:09:50;18.10;91.40
44182;DHT22;30436;48.888;9.202;2023-05-07T02:12:16;18.10;90.90
44182;DHT22;30436;48.888;9.202;2023-05-07T02:14:41;18.10;91.20
44182;DHT22;30436;48.888;9.202;2023-05-07T02:17:07;18.10;91.20
44182;DHT22;30436;48.888;9.202;2023-05-07T02:19:33;18.10;91.50
44182;DHT22;30436;48.888;9.202;2023-05-07T02:21:59;18.10;90.90
44182;DHT22;30436;48.888;9.202;2023-05-07T02:24:28;18.30;91.30
44182;DHT22;30436;48.888;9.202;2023-05-07T02:26:55;18.00;91.00
44182;DHT22;30436;48.888;9.202;2023-05-07T02:29:21;18.00;91.00
44182;DHT22;30436;48.888;9.202;2023-05-07T02:31:47;17.90;91.20
44182;DHT22;30436;48.888;9.202;2023-05-07T02:37:23;17.90;92.10
44182;DHT22;30436;48.888;9.202;2023-05-07T02:44:20;18.00;92.00
44182;DHT22;30436;48.888;9.202;2023-05-07T02:46:49;18.00;90.80
44182;DHT22;30436;48.888;9.202;2023-05-07T02:49:14;18.00;91.10
44182;DHT22;30436;48.888;9.202;2023-05-07T02:54:52;17.80;91.60
44182;DHT22;30436;48.888;9.202;2023-05-07T02:57:18;17.80;91.80
44182;DHT22;30436;48.888;9.202;2023-05-07T02:59:44;17.90;91.80
44182;DHT22;30436;48.888;9.202;2023-05-07T03:02:11;17.80;91.70
44182;DHT22;30436;48.888;9.202;2023-05-07T03:09:33;17.70;93.50
44182;DHT22;30436;48.888;9.202;2023-05-07T03:11:58;17.80;92.40
44182;DHT22;30436;48.888;9.202;2023-05-07T03:14:24;17.70;92.30
44182;DHT22;30436;48.888;9.202;2023-05-07T03:16:50;17.60;92.40
44182;DHT22;30436;48.888;9.202;2023-05-07T03:19:15;17.70;92.10
44182;DHT22;30436;48.888;9.202;2023-05-07T07:03:03;18.40;94.20
44182;DHT22;30436;48.888;9.202;2023-05-07T07:18:30;19.00;94.00
44182;DHT22;30436;48.888;9.202;2023-05-07T07:23:25;19.30;94.00
44182;DHT22;30436;48.888;9.202;2023-05-07T07:53:50;21.10;90.30
44182;DHT22;30436;48.888;9.202;2023-05-07T12:22:25;26.20;65.70
44182;DHT22;30436;48.888;9.202;2023-05-07T12:25:05;26.10;70.10
44182;DHT22;30436;48.888;9.202;2023-05-07T12:27:36;25.90;65.80
44182;DHT22;30436;48.888;9.202;2023-05-07T12:30:03;25.70;66.10
44182;DHT22;30436;48.888;9.202;2023-05-07T12:32:29;25.60;66.50
44182;DHT22;30436;48.888;9.202;2023-05-07T12:34:55;25.50;68.80
44182;DHT22;30436;48.888;9.202;2023-05-07T12:37:24;25.40;66.50
44182;DHT22;30436;48.888;9.202;2023-05-07T12:40:08;25.40;69.60
44182;DHT22;30436;48.888;9.202;2023-05-07T12:42:39;25.30;68.60
